Time;durP1;ratioP1;P1;durP2;ratioP2;P2;SDS_P1;SDS_P2;PMS_P1;PMS_P2;Temp;Humidity;BMP_temperature;BMP_pressure;BME280_temperature;BME280_humidity;BME280_pressure;Samples;Min_cycle;Max_cycle;Signal;HPM_P1;HPM_P2
2021/01/02 00:00:51;;;;;;;14.30;4.93;;;4.70;99.90;;;;;;5055852;28;20381;-75
2021/01/02 00:03:55;;;;;;;10.20;3.50;;;4.70;99.90;;;;;;5056391;28;20029;-76
2021/01/02 00:06:26;;;;;;;16.20;3.83;;;4.70;99.90;;;;;;5055892;28;20112;-75
2021/01/02 00:09:01;;;;;;;12.80;4.95;;;4.70;99.90;;;;;;5038096;28;20463;-75
2021/01/02 00:11:50;;;;;;;10.90;3.95;;;4.70;99.90;;;;;;5056345;28;20025;-75
2021/01/02 00:14:45;;;;;;;13.65;4.88;;;4.70;99.90;;;;;;5038147;28;20033;-76
2021/01/02 00:17:38;;;;;;;15.57;4.85;;;4.70;99.90;;;;;;5037028;28;20068;-75
2021/01/02 00:20:31;;;;;;;11.85;4.25;;;4.80;99.90;;;;;;5055917;28;20072;-75
2021/01/02 00:23:00;;;;;;;15.50;5.70;;;4.70;99.90;;;;;;5037649;28;20047;-75
2021/01/02 00:25:31;;;;;;;20.88;6.38;;;4.70;99.90;;;;;;5055581;28;20017;-75
2021/01/02 00:27:59;;;;;;;17.83;6.55;;;4.70;99.90;;;;;;5055328;28;20031;-73
2021/01/02 00:30:41;;;;;;;16.55;5.30;;;4.70;99.90;;;;;;5055419;28;20027;-74
2021/01/02 00:33:19;;;;;;;21.38;6.13;;;4.80;99.90;;;;;;5055514;28;20028;-73
2021/01/02 00:35:48;;;;;;;14.85;5.53;;;4.80;99.90;;;;;;5054628;28;20025;-73
2021/01/02 00:38:14;;;;;;;18.83;7.07;;;4.80;99.90;;;;;;5037507;28;20358;-73
2021/01/02 00:40:40;;;;;;;18.38;6.20;;;4.80;99.90;;;;;;5036884;28;20055;-74
2021/01/02 00:43:06;;;;;;;19.17;6.53;;;4.70;99.90;;;;;;5055513;28;20037;-74
2021/01/02 00:45:33;;;;;;;20.27;7.50;;;4.60;99.90;;;;;;5037267;28;20496;-73
2021/01/02 00:48:01;;;;;;;19.45;8.35;;;4.70;99.90;;;;;;5037457;28;20017;-74
2021/01/02 00:50:30;;;;;;;20.75;9.07;;;4.70;99.90;;;;;;5036844;28;20468;-74
2021/01/02 00:53:28;;;;;;;23.63;8.13;;;4.70;99.90;;;;;;5054934;28;20029;-73
2021/01/02 00:56:27;;;;;;;25.65;9.45;;;4.70;99.90;;;;;;5037278;28;20512;-73
2021/01/02 00:59:07;;;;;;;;;;;4.70;99.90;;;;;;5056166;28;20114;-73
2021/01/02 01:01:45;;;;;;;24.00;8.90;;;4.60;99.90;;;;;;5054836;28;19916;-73
2021/01/02 01:04:16;;;;;;;24.53;8.50;;;4.70;99.90;;;;;;5037031;28;20016;-73
2021/01/02 01:06:44;;;;;;;22.40;8.45;;;4.60;99.90;;;;;;5055122;28;20485;-73
2021/01/02 01:09:14;;;;;;;28.05;9.02;;;4.60;99.90;;;;;;5055442;28;20101;-73
2021/01/02 01:11:45;;;;;;;25.45;8.68;;;4.50;99.90;;;;;;5054951;28;20047;-73
2021/01/02 01:14:11;;;;;;;22.80;8.05;;;4.50;99.90;;;;;;5054982;28;20470;-73
2021/01/02 01:16:44;;;;;;;19.88;8.13;;;4.50;99.90;;;;;;5036739;28;20031;-74
2021/01/02 01:19:11;;;;;;;20.88;8.35;;;4.60;99.90;;;;;;5055203;28;20029;-74
2021/01/02 01:21:44;;;;;;;21.45;8.90;;;4.50;99.90;;;;;;5036558;28;20468;-74
2021/01/02 01:24:15;;;;;;;24.52;8.85;;;4.50;99.90;;;;;;5054886;28;20442;-74
2021/01/02 01:27:15;;;;;;;23.02;8.40;;;4.50;99.90;;;;;;5054854;28;20025;-74
2021/01/02 01:29:42;;;;;;;22.92;8.82;;;4.50;99.90;;;;;;5055482;28;20033;-74
2021/01/02 01:32:09;;;;;;;21.60;7.93;;;4.50;99.90;;;;;;5036431;28;20025;-74
2021/01/02 01:34:36;;;;;;;22.95;8.55;;;4.60;99.90;;;;;;5054512;28;20028;-74
2021/01/02 01:37:06;;;;;;;22.00;8.20;;;4.50;99.90;;;;;;5036394;28;20028;-74
2021/01/02 01:42:05;;;;;;;22.60;8.52;;;4.60;99.90;;;;;;5087224;28;20052;-74
2021/01/02 01:45:04;;;;;;;25.73;8.95;;;4.50;99.90;;;;;;5094740;28;20103;-74
2021/01/02 01:47:37;;;;;;;;;;;4.50;99.90;;;;;;5094698;28;20016;-74
2021/01/02 01:50:22;;;;;;;21.83;8.60;;;4.60;99.90;;;;;;5094167;28;19962;-74
2021/01/02 01:52:50;;;;;;;21.58;7.82;;;4.60;99.90;;;;;;5094074;28;20035;-74
2021/01/02 01:55:35;;;;;;;24.05;8.52;;;4.50;99.90;;;;;;5075956;28;20034;-74
2021/01/02 01:58:11;;;;;;;22.30;8.23;;;4.50;99.90;;;;;;5094214;28;20495;-74
2021/01/02 02:00:50;;;;;;;23.60;8.20;;;4.50;99.90;;;;;;5094719;28;20507;-74
2021/01/02 02:03:23;;;;;;;;;;;4.40;99.90;;;;;;5094866;28;20028;-74
2021/01/02 02:05:53;;;;;;;17.05;7.25;;;4.50;99.90;;;;;;5094197;28;19908;-74
2021/01/02 02:08:35;;;;;;;19.60;7.68;;;4.50;99.90;;;;;;5076420;28;20043;-74
2021/01/02 02:11:04;;;;;;;22.60;8.13;;;4.50;99.90;;;;;;5094537;28;20029;-74
2021/01/02 02:13:35;;;;;;;21.20;8.20;;;4.50;99.90;;;;;;5076026;28;20022;-74
2021/01/02 02:16:10;;;;;;;21.80;9.10;;;4.40;99.90;;;;;;5075762;28;20462;-74
2021/01/02 02:18:43;;;;;;;22.55;8.18;;;4.40;99.90;;;;;;5093987;28;20020;-74
2021/01/02 02:21:10;;;;;;;24.00;8.43;;;4.40;99.90;;;;;;5094092;28;20386;-74
2021/01/02 02:23:46;;;;;;;22.23;7.88;;;4.40;99.90;;;;;;5093587;28;20020;-74
2021/01/02 02:26:34;;;;;;;22.90;8.10;;;4.40;99.90;;;;;;5093764;28;20077;-74
2021/01/02 02:29:12;;;;;;;19.92;7.88;;;4.30;99.90;;;;;;5093815;28;20096;-74
2021/01/02 02:31:43;;;;;;;20.95;7.78;;;4.40;99.90;;;;;;5093627;28;20051;-74
2021/01/02 02:34:09;;;;;;;19.25;8.05;;;4.40;99.90;;;;;;5093498;28;20023;-74
2021/01/02 02:36:35;;;;;;;19.95;7.90;;;4.30;99.90;;;;;;5093351;28;20067;-74
2021/01/02 02:39:10;;;;;;;23.92;7.45;;;4.40;99.90;;;;;;5093404;28;20043;-74
2021/01/02 02:41:48;;;;;;;28.77;8.80;;;4.40;99.90;;;;;;5093153;28;20488;-74
2021/01/02 02:44:17;;;;;;;23.33;7.93;;;4.50;99.90;;;;;;5075322;28;20016;-74
2021/01/02 02:46:44;;;;;;;;;;;4.50;99.90;;;;;;5093752;28;20020;-74
2021/01/02 02:49:12;;;;;;;21.65;7.75;;;4.40;99.90;;;;;;5093226;28;19904;-74
2021/01/02 02:51:52;;;;;;;20.27;8.30;;;4.50;99.90;;;;;;5093146;28;20051;-74
2021/01/02 02:54:18;;;;;;;23.73;9.02;;;4.40;99.90;;;;;;5075185;28;20059;-74
2021/01/02 02:56:44;;;;;;;21.25;7.85;;;4.40;99.90;;;;;;5093158;28;20028;-74
2021/01/02 02:59:11;;;;;;;21.30;8.82;;;4.50;99.90;;;;;;5078051;28;20501;-74
2021/01/02 03:01:37;;;;;;;22.45;9.70;;;4.50;99.90;;;;;;5079026;28;20024;-74
2021/01/02 03:04:02;;;;;;;22.38;9.32;;;4.40;99.90;;;;;;5097339;28;20055;-74
2021/01/02 03:06:31;;;;;;;25.20;10.50;;;4.50;99.90;;;;;;5097159;28;20024;-74
2021/01/02 03:09:00;;;;;;;23.95;9.63;;;4.40;99.90;;;;;;5079232;28;20078;-74
2021/01/02 03:11:25;;;;;;;;;;;5.80;99.90;;;;;;5098231;28;20031;-74
2021/01/02 03:13:52;;;;;;;23.80;9.35;;;4.40;99.90;;;;;;5097480;28;19904;-74
2021/01/02 03:16:21;;;;;;;22.20;8.35;;;4.40;99.90;;;;;;5097233;28;20059;-74
2021/01/02 03:18:47;;;;;;;26.98;10.48;;;4.40;99.90;;;;;;5097110;28;20053;-74
2021/01/02 03:21:12;;;;;;;22.88;9.73;;;4.30;99.90;;;;;;5078962;28;20016;-74
2021/01/02 03:23:58;;;;;;;21.70;8.98;;;4.30;99.90;;;;;;5096956;28;20018;-74
2021/01/02 03:26:23;;;;;;;23.25;8.73;;;4.30;99.90;;;;;;5097205;28;20059;-74
2021/01/02 03:28:52;;;;;;;23.40;10.05;;;4.30;99.90;;;;;;5096917;28;20484;-74
2021/01/02 03:31:19;;;;;;;24.60;9.60;;;4.30;99.90;;;;;;5096785;28;20442;-74
2021/01/02 03:33:45;;;;;;;25.33;10.15;;;4.30;99.90;;;;;;5096921;28;20479;-73
2021/01/02 03:36:11;;;;;;;26.05;10.38;;;4.30;99.90;;;;;;5097007;28;20471;-73
2021/01/02 03:38:38;;;;;;;25.55;10.35;;;4.30;99.90;;;;;;5097107;28;20468;-73
2021/01/02 03:41:04;;;;;;;25.75;10.82;;;4.20;99.90;;;;;;5096498;28;20028;-74
2021/01/02 03:43:30;;;;;;;23.77;8.90;;;4.20;99.90;;;;;;5097285;28;20494;-73
2021/01/02 03:45:55;;;;;;;26.05;10.45;;;4.20;99.90;;;;;;5096448;28;20031;-74
2021/01/02 03:48:22;;;;;;;23.88;10.32;;;4.20;99.90;;;;;;5096372;28;20036;-73
2021/01/02 03:50:47;;;;;;;24.42;10.35;;;4.20;99.90;;;;;;5096170;28;20021;-73
2021/01/02 03:53:13;;;;;;;27.65;10.73;;;4.20;99.90;;;;;;5096343;28;20514;-73
2021/01/02 03:55:40;;;;;;;25.00;9.25;;;4.20;99.90;;;;;;5096439;28;20016;-73
2021/01/02 03:58:06;;;;;;;25.17;10.77;;;4.20;99.90;;;;;;5096297;28;20095;-73
2021/01/02 04:00:32;;;;;;;31.13;11.73;;;4.10;99.90;;;;;;5096164;28;20032;-73
2021/01/02 04:02:58;;;;;;;27.80;9.65;;;4.20;99.90;;;;;;5096165;28;20031;-73
2021/01/02 04:05:24;;;;;;;26.08;11.52;;;4.10;99.90;;;;;;5096256;28;20024;-73
2021/01/02 04:07:49;;;;;;;24.30;9.63;;;4.10;99.90;;;;;;5096090;28;20022;-73
2021/01/02 04:10:18;;;;;;;26.25;10.00;;;4.10;99.90;;;;;;5095907;28;20052;-73
2021/01/02 04:12:43;;;;;;;21.73;10.18;;;4.10;99.90;;;;;;5096035;28;20476;-73
2021/01/02 04:15:09;;;;;;;26.50;10.45;;;4.20;99.90;;;;;;5096069;28;20028;-74
2021/01/02 04:17:35;;;;;;;23.27;9.80;;;4.20;99.90;;;;;;5096049;28;20388;-74
2021/01/02 04:20:04;;;;;;;22.48;9.80;;;4.20;99.90;;;;;;5096003;28;20016;-74
2021/01/02 04:22:30;;;;;;;25.67;9.65;;;4.20;99.90;;;;;;5095692;28;20059;-74
2021/01/02 04:24:56;;;;;;;25.23;9.85;;;4.20;99.90;;;;;;5096123;28;20461;-74
2021/01/02 04:27:21;;;;;;;23.52;10.40;;;4.20;99.90;;;;;;5096218;28;20104;-74
2021/01/02 04:29:47;;;;;;;25.60;11.05;;;4.20;99.90;;;;;;5095743;28;20125;-74
2021/01/02 04:32:12;;;;;;;26.95;10.75;;;4.20;99.90;;;;;;5095502;28;20021;-74
2021/01/02 04:34:38;;;;;;;21.90;10.38;;;4.20;99.90;;;;;;5077390;28;20016;-74
2021/01/02 04:37:03;;;;;;;25.30;9.93;;;4.20;99.90;;;;;;5077423;28;20024;-74
2021/01/02 04:39:29;;;;;;;24.00;10.18;;;4.20;99.90;;;;;;5077518;28;20026;-74
2021/01/02 04:41:57;;;;;;;26.08;11.90;;;4.20;99.90;;;;;;5095220;28;20368;-74
2021/01/02 04:44:23;;;;;;;26.08;11.30;;;4.10;99.90;;;;;;5077238;28;20380;-74
2021/01/02 04:46:50;;;;;;;25.48;10.43;;;4.20;99.90;;;;;;5095609;28;20020;-74
2021/01/02 04:49:15;;;;;;;27.40;10.82;;;4.20;99.90;;;;;;5095399;28;20099;-74
2021/01/02 04:51:41;;;;;;;25.77;10.80;;;4.10;99.90;;;;;;5095279;28;20044;-74
2021/01/02 04:54:07;;;;;;;26.50;11.48;;;4.00;99.90;;;;;;5095161;28;20031;-74
2021/01/02 04:56:34;;;;;;;29.13;12.27;;;4.00;99.90;;;;;;5095225;28;20031;-74
2021/01/02 04:59:09;;;;;;;30.48;11.05;;;4.00;99.90;;;;;;5095250;28;20492;-74
2021/01/02 05:01:40;;;;;;;26.80;11.90;;;3.90;99.90;;;;;;5095071;28;20289;-74
2021/01/02 05:04:09;;;;;;;25.02;10.57;;;3.90;99.90;;;;;;5095000;28;20016;-74
2021/01/02 05:06:36;;;;;;;25.15;10.95;;;3.90;99.90;;;;;;5094859;28;20054;-74
2021/01/02 05:09:05;;;;;;;28.48;12.15;;;3.90;99.90;;;;;;5076626;28;20518;-74
2021/01/02 05:11:35;;;;;;;28.60;12.32;;;3.80;99.90;;;;;;5095723;28;20469;-74
2021/01/02 05:14:02;;;;;;;24.85;10.02;;;3.80;99.90;;;;;;5094816;28;20108;-74
2021/01/02 05:16:39;;;;;;;26.80;11.98;;;3.90;99.90;;;;;;5076598;28;20020;-74
2021/01/02 05:19:08;;;;;;;29.55;10.85;;;3.90;99.90;;;;;;5076759;28;20024;-74
2021/01/02 05:21:52;;;;;;;26.33;12.38;;;3.90;99.90;;;;;;5094035;28;20541;-74
2021/01/02 05:24:21;;;;;;;27.20;12.10;;;3.90;99.90;;;;;;5094839;28;20039;-74
2021/01/02 05:26:54;;;;;;;29.98;11.18;;;3.90;99.90;;;;;;5076604;28;20099;-74
2021/01/02 05:29:22;;;;;;;26.05;10.38;;;3.90;99.90;;;;;;5076669;28;20032;-74
2021/01/02 05:31:59;;;;;;;25.55;11.30;;;3.90;99.90;;;;;;5095593;28;20028;-74
2021/01/02 05:34:27;;;;;;;31.20;11.25;;;3.80;99.90;;;;;;5094610;28;20038;-74
2021/01/02 05:37:09;;;;;;;23.63;10.55;;;3.80;99.90;;;;;;5094853;28;20364;-74
2021/01/02 05:39:52;;;;;;;28.85;11.38;;;3.80;99.90;;;;;;5076358;28;20035;-74
2021/01/02 05:42:20;;;;;;;29.15;11.70;;;3.80;99.90;;;;;;5094722;28;20054;-74
2021/01/02 05:44:46;;;;;;;26.98;10.88;;;3.90;99.90;;;;;;5094589;28;20095;-73
2021/01/02 05:47:18;;;;;;;25.70;10.57;;;3.90;99.90;;;;;;5094026;28;20055;-73
2021/01/02 05:49:49;;;;;;;34.67;12.60;;;3.90;99.90;;;;;;5075930;28;20020;-73
2021/01/02 05:52:15;;;;;;;31.65;12.05;;;4.00;99.90;;;;;;5094034;28;20020;-73
2021/01/02 05:54:47;;;;;;;31.95;11.85;;;4.00;99.90;;;;;;5094533;28;20031;-73
2021/01/02 05:57:13;;;;;;;31.88;11.85;;;4.00;99.90;;;;;;5075750;28;20020;-73
2021/01/02 05:59:41;;;;;;;35.20;11.43;;;4.00;99.90;;;;;;5093829;28;20472;-73
2021/01/02 06:02:33;;;;;;;29.75;11.80;;;4.00;99.90;;;;;;5093827;28;20032;-73
2021/01/02 06:05:04;;;;;;;38.45;12.55;;;4.00;99.90;;;;;;5089918;28;20373;-73
2021/01/02 06:07:35;;;;;;;38.65;12.30;;;4.00;99.90;;;;;;5094068;28;20066;-73
2021/01/02 06:10:01;;;;;;;35.33;11.68;;;3.90;99.90;;;;;;5094047;28;20480;-73
2021/01/02 06:12:28;;;;;;;36.28;12.93;;;3.90;99.90;;;;;;5093878;28;20023;-73
2021/01/02 06:14:55;;;;;;;31.83;12.82;;;3.90;99.90;;;;;;5075927;28;20119;-73
2021/01/02 06:17:28;;;;;;;33.85;11.50;;;3.90;99.90;;;;;;5093667;28;20024;-73
2021/01/02 06:19:54;;;;;;;41.75;13.18;;;3.90;99.90;;;;;;5075929;28;20028;-73
2021/01/02 06:22:20;;;;;;;35.55;12.05;;;3.90;99.90;;;;;;5093746;28;20081;-73
2021/01/02 06:24:48;;;;;;;36.10;12.70;;;3.90;99.90;;;;;;5094156;28;20052;-73
2021/01/02 06:27:15;;;;;;;38.33;13.00;;;3.90;99.90;;;;;;5093579;28;20105;-73
2021/01/02 06:29:40;;;;;;;41.50;12.70;;;3.90;99.90;;;;;;5093505;28;20158;-73
2021/01/02 06:32:07;;;;;;;40.92;12.70;;;3.80;99.90;;;;;;5093632;28;20506;-73
2021/01/02 06:34:32;;;;;;;45.90;14.00;;;3.80;99.90;;;;;;5079359;28;20020;-73
2021/01/02 06:36:58;;;;;;;34.53;13.07;;;3.80;99.90;;;;;;5098002;28;20020;-73
2021/01/02 06:39:27;;;;;;;42.03;13.82;;;3.80;99.90;;;;;;5097948;28;20020;-74
2021/01/02 06:41:54;;;;;;;45.53;13.40;;;3.80;99.90;;;;;;5097572;28;20032;-73
2021/01/02 06:44:39;;;;;;;42.28;13.43;;;3.90;99.90;;;;;;5097979;28;20115;-73
2021/01/02 06:47:22;;;;;;;42.70;13.15;;;3.90;99.90;;;;;;5097647;28;20030;-73
2021/01/02 06:49:51;;;;;;;38.20;13.15;;;4.00;99.90;;;;;;5079613;28;20024;-73
2021/01/02 06:52:30;;;;;;;47.90;13.90;;;4.00;99.90;;;;;;5079602;28;20026;-73
2021/01/02 06:55:21;;;;;;;40.00;13.23;;;3.90;99.90;;;;;;5097592;28;20024;-72
2021/01/02 06:57:47;;;;;;;44.33;12.40;;;3.80;99.90;;;;;;5098168;28;20476;-73
2021/01/02 07:00:19;;;;;;;40.33;12.55;;;3.80;99.90;;;;;;5097972;28;20016;-73
2021/01/02 07:02:47;;;;;;;40.38;12.93;;;3.90;99.90;;;;;;5080594;28;20042;-74
2021/01/02 07:05:48;;;;;;;41.63;12.68;;;3.80;99.90;;;;;;5080407;28;20484;-72
2021/01/02 07:08:53;;;;;;;40.05;13.43;;;3.80;99.90;;;;;;5079238;28;20107;-74
2021/01/02 07:11:39;;;;;;;41.80;12.75;;;3.90;99.90;;;;;;5015639;28;20026;-74
2021/01/02 07:14:10;;;;;;;43.78;13.40;;;3.90;99.90;;;;;;5014937;28;20129;-74
2021/01/02 07:16:51;;;;;;;39.17;12.63;;;3.90;99.90;;;;;;5058293;28;20472;-73
2021/01/02 07:19:26;;;;;;;44.33;14.95;;;3.90;99.90;;;;;;5079980;28;20032;-74
2021/01/02 07:22:01;;;;;;;44.92;14.10;;;3.90;99.90;;;;;;5097952;28;20028;-74
2021/01/02 07:24:45;;;;;;;41.10;13.52;;;3.90;99.90;;;;;;5097423;28;20020;-74
2021/01/02 07:27:28;;;;;;;38.75;12.75;;;3.90;99.90;;;;;;5079442;28;20023;-74
2021/01/02 07:29:55;;;;;;;52.15;13.32;;;3.90;99.90;;;;;;5097142;28;20016;-74
2021/01/02 07:32:27;;;;;;;41.85;12.50;;;3.90;99.90;;;;;;5097632;28;20476;-74
2021/01/02 07:35:02;;;;;;;42.20;13.02;;;3.90;99.90;;;;;;5078911;28;20063;-74
2021/01/02 07:37:46;;;;;;;47.60;13.38;;;3.90;99.90;;;;;;5097127;28;20107;-74
2021/01/02 07:40:13;;;;;;;43.67;13.07;;;4.00;99.90;;;;;;5096850;28;20028;-74
2021/01/02 07:42:42;;;;;;;38.63;13.43;;;4.00;99.90;;;;;;5078608;28;20067;-74
2021/01/02 07:45:13;;;;;;;55.80;15.45;;;4.00;99.90;;;;;;5078320;28;20073;-74
2021/01/02 07:47:59;;;;;;;47.03;14.35;;;4.00;99.90;;;;;;5096478;28;20012;-74
2021/01/02 07:50:27;;;;;;;46.13;13.73;;;3.90;99.90;;;;;;5078313;28;20024;-74
2021/01/02 07:52:54;;;;;;;55.22;18.20;;;3.90;99.90;;;;;;5096328;28;20028;-74
2021/01/02 07:55:34;;;;;;;43.97;12.60;;;4.00;99.90;;;;;;5096227;28;20150;-74
2021/01/02 07:58:00;;;;;;;43.38;14.23;;;3.90;99.90;;;;;;5096326;28;20077;-74
2021/01/02 08:00:26;;;;;;;42.83;13.80;;;4.00;99.90;;;;;;5078231;28;20020;-74
2021/01/02 08:02:52;;;;;;;47.92;15.48;;;3.90;99.90;;;;;;5096285;28;20024;-74
2021/01/02 08:05:20;;;;;;;47.30;14.65;;;3.90;99.90;;;;;;5096516;28;20070;-74
2021/01/02 08:07:55;;;;;;;42.75;13.43;;;3.80;99.90;;;;;;5096582;28;20055;-74
2021/01/02 08:10:20;;;;;;;43.00;13.52;;;3.90;99.90;;;;;;5096496;28;20112;-73
2021/01/02 08:12:50;;;;;;;47.15;14.13;;;3.80;99.90;;;;;;5096450;28;20059;-74
2021/01/02 08:15:33;;;;;;;47.67;14.27;;;3.90;99.90;;;;;;5096619;28;20058;-74
2021/01/02 08:18:06;;;;;;;43.00;12.52;;;3.90;99.90;;;;;;5078107;28;20020;-74
2021/01/02 08:20:33;;;;;;;51.13;14.35;;;3.80;99.90;;;;;;5096422;28;20024;-73
2021/01/02 08:23:09;;;;;;;45.70;13.73;;;3.90;99.90;;;;;;5096201;28;20439;-73
2021/01/02 08:25:35;;;;;;;42.15;14.80;;;3.90;99.90;;;;;;5096483;28;20024;-73
2021/01/02 08:28:01;;;;;;;48.50;15.07;;;3.80;99.90;;;;;;5077701;28;20023;-75
2021/01/02 08:30:27;;;;;;;50.53;15.40;;;3.80;99.90;;;;;;5095897;28;20104;-76
2021/01/02 08:32:54;;;;;;;47.10;14.40;;;3.80;99.90;;;;;;5078194;28;20052;-76
2021/01/02 08:35:23;;;;;;;61.25;17.30;;;3.80;99.90;;;;;;5096054;28;20024;-75
2021/01/02 08:37:49;;;;;;;60.45;15.75;;;3.80;99.90;;;;;;5095812;28;20038;-76
2021/01/02 08:40:17;;;;;;;41.20;14.35;;;3.80;99.90;;;;;;5077623;28;20028;-76
2021/01/02 08:42:44;;;;;;;50.20;14.82;;;3.80;99.90;;;;;;5095727;28;20077;-76
2021/01/02 08:45:14;;;;;;;46.13;15.50;;;3.80;99.90;;;;;;5095835;28;20035;-76
2021/01/02 08:47:40;;;;;;;48.28;14.07;;;3.90;99.90;;;;;;5095715;28;20023;-76
2021/01/02 08:50:08;;;;;;;51.58;16.48;;;3.90;99.90;;;;;;5077327;28;20027;-76
2021/01/02 08:52:35;;;;;;;50.25;14.73;;;3.90;99.90;;;;;;5077495;28;20499;-76
2021/01/02 08:55:11;;;;;;;40.53;14.25;;;4.00;99.90;;;;;;5076955;28;20023;-76
2021/01/02 08:57:48;;;;;;;49.80;15.88;;;4.00;99.90;;;;;;5077099;28;20507;-76
2021/01/02 09:00:29;;;;;;;44.25;14.40;;;4.00;99.90;;;;;;5095526;28;20487;-77
2021/01/02 09:02:55;;;;;;;57.30;14.68;;;4.10;99.90;;;;;;5095203;28;20028;-76
2021/01/02 09:05:29;;;;;;;46.50;13.98;;;4.10;99.90;;;;;;5095377;28;20024;-76
2021/01/02 09:08:00;;;;;;;52.25;14.95;;;4.10;99.90;;;;;;5095255;28;20020;-76
2021/01/02 09:10:26;;;;;;;46.10;16.05;;;4.10;99.90;;;;;;5095148;28;20103;-75
2021/01/02 09:13:01;;;;;;;52.03;14.63;;;4.10;99.90;;;;;;5095162;28;20047;-76
2021/01/02 09:15:54;;;;;;;48.00;14.82;;;4.10;99.90;;;;;;5076800;28;20024;-76
2021/01/02 09:18:32;;;;;;;46.42;14.73;;;4.10;99.90;;;;;;5095559;28;20027;-76
2021/01/02 09:21:09;;;;;;;43.95;14.57;;;4.10;99.90;;;;;;5094989;28;20098;-76
2021/01/02 09:23:40;;;;;;;40.78;14.27;;;4.20;99.90;;;;;;5076711;28;20032;-76
2021/01/02 09:26:21;;;;;;;38.85;12.43;;;4.20;99.90;;;;;;5095397;28;20441;-76
2021/01/02 09:28:47;;;;;;;38.35;12.55;;;4.10;99.90;;;;;;5076651;28;20031;-76
2021/01/02 09:31:13;;;;;;;44.67;14.40;;;4.10;99.90;;;;;;5094637;28;20024;-77
2021/01/02 09:33:39;;;;;;;44.75;14.82;;;4.10;99.90;;;;;;5095389;28;20364;-77
2021/01/02 09:36:06;;;;;;;40.88;12.63;;;4.10;99.90;;;;;;5094857;28;20357;-77
2021/01/02 09:38:31;;;;;;;46.42;13.68;;;4.10;99.90;;;;;;5094942;28;20541;-76
2021/01/02 09:40:57;;;;;;;41.17;13.35;;;4.10;99.90;;;;;;5094606;28;20028;-76
2021/01/02 09:43:23;;;;;;;38.90;12.95;;;4.20;99.90;;;;;;5094731;28;20019;-77
2021/01/02 09:45:49;;;;;;;38.83;12.93;;;4.20;99.90;;;;;;5094799;28;20085;-77
2021/01/02 09:48:15;;;;;;;37.38;12.70;;;4.30;99.90;;;;;;5076870;28;20024;-76
2021/01/02 09:50:43;;;;;;;41.63;13.93;;;4.40;99.90;;;;;;5094951;28;20059;-76
2021/01/02 09:53:10;;;;;;;41.53;14.20;;;4.50;99.90;;;;;;5094682;28;20027;-77
2021/01/02 09:55:36;;;;;;;35.72;11.57;;;4.50;99.90;;;;;;5075769;28;20031;-76
2021/01/02 09:58:02;;;;;;;43.75;12.65;;;4.50;99.90;;;;;;5094268;28;20020;-76
2021/01/02 10:00:28;;;;;;;38.60;13.13;;;4.60;99.90;;;;;;5076372;28;20062;-76
2021/01/02 10:02:54;;;;;;;41.60;11.50;;;4.60;99.90;;;;;;5094420;28;20024;-76
2021/01/02 10:05:22;;;;;;;36.90;12.77;;;4.60;99.90;;;;;;5076055;28;20377;-76
2021/01/02 10:07:48;;;;;;;35.65;12.35;;;4.70;99.90;;;;;;5094404;28;20012;-75
2021/01/02 10:10:15;;;;;;;40.70;13.60;;;4.70;99.90;;;;;;5094396;28;20016;-74
2021/01/02 10:12:42;;;;;;;36.80;12.73;;;4.80;99.90;;;;;;5094121;28;20119;-72
2021/01/02 10:15:08;;;;;;;39.22;13.25;;;4.90;99.90;;;;;;5094791;28;20078;-72
2021/01/02 10:17:34;;;;;;;39.72;14.38;;;4.90;99.90;;;;;;5093954;28;20024;-72
2021/01/02 10:20:00;;;;;;;38.83;12.82;;;4.90;99.90;;;;;;5094140;28;20386;-72
2021/01/02 10:22:26;;;;;;;30.80;11.52;;;5.00;99.90;;;;;;5093988;28;20103;-72
2021/01/02 10:24:52;;;;;;;40.25;12.48;;;5.00;99.90;;;;;;5094648;28;20099;-72
2021/01/02 10:27:19;;;;;;;35.80;12.93;;;5.10;99.90;;;;;;5093765;28;20020;-71
2021/01/02 10:29:47;;;;;;;30.20;12.50;;;5.10;99.90;;;;;;5094162;28;20040;-72
2021/01/02 10:32:14;;;;;;;43.00;13.68;;;5.10;99.90;;;;;;5093338;28;20024;-72
2021/01/02 10:34:40;;;;;;;30.05;11.35;;;5.10;99.90;;;;;;5094154;28;20060;-72
2021/01/02 10:37:06;;;;;;;35.25;12.15;;;5.10;99.90;;;;;;5094011;28;20043;-72
2021/01/02 10:39:31;;;;;;;36.40;12.75;;;5.10;99.90;;;;;;5093650;28;20107;-72
2021/01/02 10:41:57;;;;;;;34.65;12.15;;;5.00;99.90;;;;;;5093286;28;20058;-72
2021/01/02 10:44:23;;;;;;;34.70;13.48;;;5.10;99.90;;;;;;5093916;28;20016;-72
2021/01/02 10:46:51;;;;;;;36.97;13.15;;;5.00;99.90;;;;;;5075260;28;20048;-72
2021/01/02 10:49:19;;;;;;;31.80;11.60;;;5.00;99.90;;;;;;5093384;28;20024;-72
2021/01/02 10:51:45;;;;;;;38.88;12.60;;;5.00;99.90;;;;;;5093396;28;20032;-72
2021/01/02 10:54:12;;;;;;;36.80;12.15;;;5.00;99.90;;;;;;5093278;28;20537;-72
2021/01/02 10:56:52;;;;;;;33.08;11.43;;;5.10;99.90;;;;;;5075193;28;20118;-72
2021/01/02 10:59:20;;;;;;;31.75;11.68;;;5.10;99.90;;;;;;5093312;28;20026;-72
2021/01/02 11:01:48;;;;;;;45.30;12.07;;;5.10;99.90;;;;;;5093213;28;20032;-72
2021/01/02 11:04:15;;;;;;;39.67;13.40;;;5.10;99.90;;;;;;5093586;28;20495;-72
2021/01/02 11:06:43;;;;;;;37.95;11.63;;;5.10;99.90;;;;;;5093318;28;20032;-72
2021/01/02 11:09:14;;;;;;;37.72;12.52;;;5.00;99.90;;;;;;5093193;28;20017;-73
2021/01/02 11:11:40;;;;;;;35.70;12.18;;;4.90;99.90;;;;;;5074963;28;20122;-73
2021/01/02 11:14:06;;;;;;;38.85;13.63;;;4.90;99.90;;;;;;5093192;28;20412;-73
2021/01/02 11:16:34;;;;;;;35.70;12.50;;;4.80;99.90;;;;;;5074968;28;20020;-73
2021/01/02 11:19:00;;;;;;;39.83;14.00;;;4.80;99.90;;;;;;5076123;28;20111;-73
2021/01/02 11:21:26;;;;;;;39.47;13.43;;;4.80;99.90;;;;;;5096926;28;20503;-74
2021/01/02 11:23:52;;;;;;;31.40;12.10;;;4.80;99.90;;;;;;5097372;28;20024;-73
2021/01/02 11:26:18;;;;;;;39.92;11.88;;;4.80;99.90;;;;;;5079134;28;20016;-74
2021/01/02 11:28:44;;;;;;;35.38;11.90;;;4.80;99.90;;;;;;5097352;28;20013;-74
2021/01/02 11:31:10;;;;;;;37.45;11.70;;;4.90;99.90;;;;;;5376756;22;20014;-74
2021/01/02 11:33:36;;;;;;;31.70;11.90;;;4.90;99.90;;;;;;5097884;28;20028;-74
2021/01/02 11:36:02;;;;;;;38.22;12.30;;;4.90;99.90;;;;;;5079806;28;20126;-77
2021/01/02 11:38:28;;;;;;;31.05;11.05;;;4.90;99.90;;;;;;5097131;28;20035;-77
2021/01/02 11:40:56;;;;;;;34.63;11.70;;;4.90;99.90;;;;;;5097041;28;20028;-77
2021/01/02 11:43:21;;;;;;;42.55;13.23;;;4.80;99.90;;;;;;5097135;28;20028;-77
2021/01/02 11:45:48;;;;;;;41.88;12.95;;;4.80;99.90;;;;;;5097063;28;20020;-74
2021/01/02 11:48:15;;;;;;;43.22;13.73;;;4.80;99.90;;;;;;5078654;28;20106;-77
2021/01/02 11:50:41;;;;;;;41.70;13.43;;;4.60;99.90;;;;;;5078550;28;20569;-77
2021/01/02 11:53:08;;;;;;;51.08;13.98;;;4.70;99.90;;;;;;5078736;28;20052;-77
2021/01/02 11:55:34;;;;;;;41.55;13.35;;;4.70;99.90;;;;;;5097103;28;20028;-77
2021/01/02 11:58:01;;;;;;;52.67;14.55;;;4.70;99.90;;;;;;5096800;28;20063;-77
2021/01/02 12:00:28;;;;;;;50.20;15.77;;;4.80;99.90;;;;;;5096509;28;20028;-76
2021/01/02 12:02:54;;;;;;;51.92;16.77;;;4.70;99.90;;;;;;5096828;28;20021;-77
2021/01/02 12:05:20;;;;;;;42.58;15.27;;;4.80;99.90;;;;;;5096707;28;20070;-76
2021/01/02 12:07:45;;;;;;;43.45;14.10;;;4.80;99.90;;;;;;5078419;28;20016;-79
2021/01/02 12:10:14;;;;;;;40.88;14.00;;;4.80;99.90;;;;;;5096349;28;20028;-76
2021/01/02 12:12:39;;;;;;;46.10;13.35;;;4.80;99.90;;;;;;5078369;28;20023;-76
2021/01/02 12:15:05;;;;;;;33.20;11.05;;;4.70;99.90;;;;;;5096390;28;20591;-76
2021/01/02 12:17:31;;;;;;;38.25;12.18;;;4.70;99.90;;;;;;5078057;28;20058;-77
2021/01/02 12:19:59;;;;;;;37.10;11.93;;;4.70;99.90;;;;;;5096148;28;20460;-76
2021/01/02 12:22:25;;;;;;;47.10;13.90;;;4.70;99.90;;;;;;5096013;28;20105;-76
2021/01/02 12:24:50;;;;;;;38.10;12.95;;;4.70;99.90;;;;;;5096190;28;20032;-76
2021/01/02 12:27:16;;;;;;;63.35;15.88;;;4.70;99.90;;;;;;5096224;28;20056;-76
2021/01/02 12:29:43;;;;;;;45.80;15.10;;;4.70;99.90;;;;;;5095647;28;20052;-76
2021/01/02 12:32:10;;;;;;;48.85;15.55;;;4.70;99.90;;;;;;5094801;28;20032;-76
2021/01/02 12:34:38;;;;;;;53.22;16.50;;;4.70;99.90;;;;;;5096731;28;20035;-76
2021/01/02 12:37:07;;;;;;;48.40;16.23;;;4.60;99.90;;;;;;5077894;28;20495;-76
2021/01/02 12:39:33;;;;;;;53.47;15.93;;;4.70;99.90;;;;;;5095746;28;20115;-76
2021/01/02 12:42:00;;;;;;;51.00;16.08;;;4.70;99.90;;;;;;5095723;28;20020;-77
2021/01/02 12:44:27;;;;;;;44.30;15.27;;;4.70;99.90;;;;;;5095836;28;20022;-76
2021/01/02 12:47:04;;;;;;;41.42;14.27;;;4.70;99.90;;;;;;5096010;28;20461;-76
2021/01/02 12:49:32;;;;;;;35.50;11.43;;;4.80;99.90;;;;;;5095620;28;20476;-76
2021/01/02 12:52:00;;;;;;;34.20;12.40;;;4.80;99.90;;;;;;5077598;28;20072;-76
2021/01/02 12:54:25;;;;;;;36.50;11.77;;;4.90;99.90;;;;;;5095659;28;20031;-76
2021/01/02 12:56:55;;;;;;;44.13;13.40;;;4.90;99.90;;;;;;5095451;28;20024;-76
2021/01/02 12:59:24;;;;;;;36.05;13.95;;;4.90;99.90;;;;;;5077375;28;20480;-77